Time;durP1;ratioP1;P1;durP2;ratioP2;P2;SDS_P1;SDS_P2;PMS_P1;PMS_P2;Temp;Humidity;BMP_temperature;BMP_pressure;BME280_temperature;BME280_humidity;BME280_pressure;Samples;Min_cycle;Max_cycle;Signal;HPM_P1;HPM_P2
2022/04/03 00:00:33;;;;;;;;;;;-0.90;99.90;;;;;;5052513;28;19916;-74
2022/04/03 00:02:59;;;;;;;;;;;-0.90;99.90;;;;;;5067228;28;19912;-74
2022/04/03 00:05:25;;;;;;;;;;;-0.90;99.90;;;;;;5054102;28;20290;-74
2022/04/03 00:07:50;;;;;;;;;;;-1.00;99.90;;;;;;5052935;28;19952;-75
2022/04/03 00:10:16;;;;;;;;;;;-1.00;99.90;;;;;;5053914;28;19909;-76
2022/04/03 00:12:41;;;;;;;;;;;-1.00;99.90;;;;;;5053915;28;20366;-74
2022/04/03 00:15:07;;;;;;;;;;;-1.00;99.90;;;;;;5053441;28;19916;-74
2022/04/03 00:17:33;;;;;;;;;;;-1.00;99.90;;;;;;5047247;28;19917;-74
2022/04/03 00:19:59;;;;;;;;;;;-1.10;99.90;;;;;;5053721;28;19917;-75
2022/04/03 00:22:24;;;;;;;;;;;-1.10;99.90;;;;;;5053838;28;19909;-74
2022/04/03 00:24:50;;;;;;;;;;;-1.10;99.90;;;;;;5053429;28;19909;-74
2022/04/03 00:27:16;;;;;;;;;;;-1.10;99.90;;;;;;5052152;28;20339;-74
2022/04/03 00:29:41;;;;;;;;;;;-1.10;99.90;;;;;;5053539;28;19916;-74
2022/04/03 00:32:07;;;;;;;;;;;-1.10;99.90;;;;;;5049568;28;20421;-74
2022/04/03 00:34:33;;;;;;;;;;;-1.10;99.90;;;;;;5053070;28;19990;-75
2022/04/03 00:36:58;;;;;;;;;;;-1.10;99.90;;;;;;5053506;28;19916;-74
2022/04/03 00:39:24;;;;;;;;;;;-1.10;99.90;;;;;;5052062;28;19913;-74
2022/04/03 00:41:49;;;;;;;;;;;-1.10;99.90;;;;;;5053156;28;19909;-74
2022/04/03 00:44:17;;;;;;;;;;;-1.10;99.90;;;;;;5052929;28;19990;-74
2022/04/03 00:46:43;;;;;;;;;;;-1.10;99.90;;;;;;5053414;28;20003;-74
2022/04/03 00:49:08;;;;;;;;;;;-1.10;99.90;;;;;;5053136;28;19947;-74
2022/04/03 00:51:34;;;;;;;;;;;-1.10;99.90;;;;;;5053028;28;20365;-74
2022/04/03 00:54:00;;;;;;;;;;;-1.10;99.90;;;;;;5052870;28;19916;-74
2022/04/03 00:56:26;;;;;;;;;;;-1.10;99.90;;;;;;5052839;28;19909;-74
2022/04/03 00:58:51;;;;;;;;;;;-1.10;99.90;;;;;;5051602;28;19966;-74
2022/04/03 01:01:19;;;;;;;;;;;-1.20;99.90;;;;;;5052227;28;19909;-74
2022/04/03 01:03:45;;;;;;;;;;;-1.10;99.90;;;;;;5052415;28;19909;-74
2022/04/03 01:06:11;;;;;;;;;;;-1.10;99.90;;;;;;5053020;28;19967;-74
2022/04/03 01:08:36;;;;;;;;;;;-1.10;99.90;;;;;;5052874;28;20366;-74
2022/04/03 01:11:02;;;;;;;;;;;-1.10;99.90;;;;;;5052496;28;19909;-74
2022/04/03 01:13:27;;;;;;;;;;;-1.10;99.90;;;;;;5051104;28;20285;-76
2022/04/03 01:15:54;;;;;;;;;;;-1.10;99.90;;;;;;5052692;28;19912;-74
2022/04/03 01:18:20;;;;;;;;;;;-1.10;99.90;;;;;;5052466;28;19921;-74
2022/04/03 01:20:45;;;;;;;;;;;-1.10;99.90;;;;;;5052592;28;19920;-74
2022/04/03 01:23:11;;;;;;;;;;;-1.10;99.90;;;;;;5052022;28;19909;-74
2022/04/03 01:25:36;;;;;;;;;;;-1.10;99.90;;;;;;5052505;28;20320;-74
2022/04/03 01:28:02;;;;;;;;;;;-1.10;99.90;;;;;;5052849;28;19913;-74
2022/04/03 01:30:28;;;;;;;;;;;-1.00;99.90;;;;;;5052157;28;19936;-74
2022/04/03 01:32:53;;;;;;;;;;;-1.10;99.90;;;;;;5052139;28;20579;-74
2022/04/03 01:35:19;;;;;;;;;;;-1.10;99.90;;;;;;5052389;28;19920;-74
2022/04/03 01:37:44;;;;;;;;;;;-1.10;99.90;;;;;;5052349;28;20360;-74
2022/04/03 01:40:10;;;;;;;;;;;-1.10;99.90;;;;;;5052106;28;19917;-74
2022/04/03 01:42:35;;;;;;;;;;;-1.10;99.90;;;;;;5052253;28;19932;-74
2022/04/03 01:45:01;;;;;;;;;;;-1.10;99.90;;;;;;5051998;28;19948;-74
2022/04/03 01:47:26;;;;;;;;;;;-1.10;99.90;;;;;;5052066;28;19916;-74
2022/04/03 01:49:52;;;;;;;;;;;-1.10;99.90;;;;;;5052000;28;19963;-74
2022/04/03 01:52:17;;;;;;;;;;;-1.00;99.90;;;;;;5051870;28;19939;-74
2022/04/03 01:54:43;;;;;;;;;;;-1.00;99.90;;;;;;5051780;28;19915;-74
2022/04/03 01:57:09;;;;;;;;;;;-1.00;99.90;;;;;;5051917;28;19956;-74
2022/04/03 01:59:34;;;;;;;;;;;-1.10;99.90;;;;;;5051804;28;19913;-74
2022/04/03 02:02:00;;;;;;;;;;;-1.10;99.90;;;;;;5047422;28;19916;-74
2022/04/03 02:04:25;;;;;;;;;;;-1.00;99.90;;;;;;5051415;28;19909;-75
2022/04/03 02:06:51;;;;;;;;;;;-1.10;99.90;;;;;;5051996;28;20017;-74
2022/04/03 02:09:17;;;;;;;;;;;-1.10;99.90;;;;;;5051722;28;19919;-76
2022/04/03 02:11:43;;;;;;;;;;;-1.10;99.90;;;;;;5051582;28;19919;-76
2022/04/03 02:14:09;;;;;;;;;;;-1.10;99.90;;;;;;5050047;28;19913;-74
2022/04/03 02:16:34;;;;;;;;;;;-1.10;99.90;;;;;;5051740;28;19971;-74
2022/04/03 02:18:59;;;;;;;;;;;-1.10;99.90;;;;;;5051381;28;19917;-74
2022/04/03 02:21:25;;;;;;;;;;;-1.00;99.90;;;;;;5050877;28;19915;-75
2022/04/03 02:23:51;;;;;;;;;;;-1.00;99.90;;;;;;5051206;28;19909;-74
2022/04/03 02:26:17;;;;;;;;;;;-1.10;99.90;;;;;;5051285;28;19959;-74
2022/04/03 02:28:43;;;;;;;;;;;-1.00;99.90;;;;;;5051481;28;19908;-74
2022/04/03 02:31:09;;;;;;;;;;;-1.10;99.90;;;;;;5053747;28;20308;-74
2022/04/03 02:33:35;;;;;;;;;;;-1.10;99.90;;;;;;5047918;28;20353;-74
2022/04/03 02:36:00;;;;;;;;;;;-1.00;99.90;;;;;;5051896;28;19909;-74
2022/04/03 02:38:26;;;;;;;;;;;-1.00;99.90;;;;;;5050002;28;20360;-74
2022/04/03 02:40:51;;;;;;;;;;;-1.10;99.90;;;;;;5051270;28;20026;-74
2022/04/03 02:43:17;;;;;;;;;;;-1.00;99.90;;;;;;5051021;28;19932;-74
2022/04/03 02:45:42;;;;;;;;;;;-1.10;99.90;;;;;;5051387;28;19995;-74
2022/04/03 02:48:08;;;;;;;;;;;-1.10;99.90;;;;;;5051156;28;20279;-75
2022/04/03 02:50:34;;;;;;;;;;;-1.10;99.90;;;;;;5051326;28;19916;-74
2022/04/03 02:52:59;;;;;;;;;;;-1.10;99.90;;;;;;5051581;28;20353;-74
2022/04/03 02:55:25;;;;;;;;;;;-1.10;99.90;;;;;;5050788;28;19940;-74
2022/04/03 02:57:52;;;;;;;;;;;-1.10;99.90;;;;;;5051212;28;19992;-74
2022/04/03 03:00:19;;;;;;;;;;;-1.10;99.90;;;;;;5050422;28;19923;-74
2022/04/03 03:02:45;;;;;;;;;;;-1.00;99.90;;;;;;5052607;28;19974;-74
2022/04/03 03:05:13;;;;;;;;;;;-1.10;99.90;;;;;;5050871;28;19909;-74
2022/04/03 03:07:40;;;;;;;;;;;-1.10;99.90;;;;;;5050826;28;20012;-74
2022/04/03 03:10:06;;;;;;;;;;;-1.10;99.90;;;;;;5050777;28;19913;-74
2022/04/03 03:12:32;;;;;;;;;;;-1.20;99.90;;;;;;5050734;28;20385;-74
2022/04/03 03:14:57;;;;;;;;;;;-1.10;99.90;;;;;;5050755;28;19909;-74
2022/04/03 03:17:22;;;;;;;;;;;-1.10;99.90;;;;;;5050832;28;20011;-75
2022/04/03 03:19:48;;;;;;;;;;;-1.10;99.90;;;;;;5050792;28;19958;-74
2022/04/03 03:22:14;;;;;;;;;;;-1.10;99.90;;;;;;5050811;28;20355;-74
2022/04/03 03:24:39;;;;;;;;;;;-1.10;99.90;;;;;;5050364;28;19944;-74
2022/04/03 03:27:05;;;;;;;;;;;-1.10;99.90;;;;;;5050985;28;19962;-74
2022/04/03 03:29:30;;;;;;;;;;;-1.10;99.90;;;;;;5050612;28;19948;-76
2022/04/03 03:31:56;;;;;;;;;;;-1.00;99.90;;;;;;5050404;28;19909;-74
2022/04/03 03:34:22;;;;;;;;;;;-1.00;99.90;;;;;;5053218;28;19909;-74
2022/04/03 03:36:47;;;;;;;;;;;-1.00;99.90;;;;;;5054422;28;19920;-74
2022/04/03 03:39:13;;;;;;;;;;;-1.10;99.90;;;;;;5054394;28;19924;-75
2022/04/03 03:41:39;;;;;;;;;;;-1.10;99.90;;;;;;5054287;28;19913;-74
2022/04/03 03:44:10;;;;;;;;;;;-1.10;99.90;;;;;;5052847;28;19932;-74
2022/04/03 03:46:36;;;;;;;;;;;-1.10;99.90;;;;;;5054403;28;20316;-75
2022/04/03 03:49:02;;;;;;;;;;;-1.10;99.90;;;;;;5054445;28;19963;-75
2022/04/03 03:51:27;;;;;;;;;;;-1.10;99.90;;;;;;5053991;28;19909;-76
2022/04/03 03:53:53;;;;;;;;;;;-1.10;99.90;;;;;;5054116;28;19913;-74
2022/04/03 03:56:18;;;;;;;;;;;-1.20;99.90;;;;;;5054221;28;19913;-74
2022/04/03 03:58:44;;;;;;;;;;;-1.20;99.90;;;;;;5052916;28;20332;-74
2022/04/03 04:01:09;;;;;;;;;;;-1.10;99.90;;;;;;5056866;28;19919;-74
2022/04/03 04:03:35;;;;;;;;;;;-1.10;99.90;;;;;;5053538;28;19954;-74
2022/04/03 04:06:00;;;;;;;;;;;-1.20;99.90;;;;;;5052904;28;19909;-74
2022/04/03 04:08:26;;;;;;;;;;;-1.10;99.90;;;;;;5053824;28;19912;-75
2022/04/03 04:10:51;;;;;;;;;;;-1.10;99.90;;;;;;5053934;28;20272;-74
2022/04/03 04:13:17;;;;;;;;;;;-1.10;99.90;;;;;;5053470;28;20278;-74
2022/04/03 04:15:42;;;;;;;;;;;-1.10;99.90;;;;;;5053942;28;19912;-74
2022/04/03 04:18:08;;;;;;;;;;;-1.20;99.90;;;;;;5053577;28;19924;-76
2022/04/03 04:20:33;;;;;;;;;;;-1.20;99.90;;;;;;5052305;28;19956;-74
2022/04/03 04:22:59;;;;;;;;;;;-1.10;99.90;;;;;;5053628;28;19916;-74
2022/04/03 04:25:24;;;;;;;;;;;-1.10;99.90;;;;;;5053676;28;19909;-75
2022/04/03 04:27:50;;;;;;;;;;;-1.20;99.90;;;;;;5053931;28;20389;-76
2022/04/03 04:30:17;;;;;;;;;;;-1.10;99.90;;;;;;5053819;28;20040;-74
2022/04/03 04:32:43;;;;;;;;;;;-1.20;99.90;;;;;;5055994;28;19909;-75
2022/04/03 04:35:08;;;;;;;;;;;-1.20;99.90;;;;;;5053441;28;19909;-76
2022/04/03 04:37:34;;;;;;;;;;;-1.20;99.90;;;;;;5053595;28;19990;-74
2022/04/03 04:40:00;;;;;;;;;;;-1.20;99.90;;;;;;5053577;28;20258;-74
2022/04/03 04:42:25;;;;;;;;;;;-1.20;99.90;;;;;;5053493;28;20099;-75
2022/04/03 04:44:51;;;;;;;;;;;-1.20;99.90;;;;;;5051488;28;19913;-75
2022/04/03 04:47:16;;;;;;;;;;;-1.20;99.90;;;;;;5053494;28;19916;-75
2022/04/03 04:49:42;;;;;;;;;;;-1.20;99.90;;;;;;5053348;28;20427;-75
2022/04/03 04:52:07;;;;;;;;;;;-1.20;99.90;;;;;;5053068;28;19912;-75
2022/04/03 04:54:33;;;;;;;;;;;-1.20;99.90;;;;;;5053010;28;19951;-75
2022/04/03 04:56:59;;;;;;;;;;;-1.20;99.90;;;;;;5053039;28;19913;-75
2022/04/03 04:59:24;;;;;;;;;;;-1.20;99.90;;;;;;5053127;28;20397;-75
2022/04/03 05:01:50;;;;;;;;;;;-1.30;99.90;;;;;;5047278;28;19916;-75
2022/04/03 05:04:15;;;;;;;;;;;-1.30;99.90;;;;;;5052756;28;20007;-75
2022/04/03 05:06:41;;;;;;;;;;;-1.30;99.90;;;;;;5052815;28;20427;-75
2022/04/03 05:09:07;;;;;;;;;;;-1.30;99.90;;;;;;5053037;28;19908;-74
2022/04/03 05:11:33;;;;;;;;;;;-1.20;99.90;;;;;;5052715;28;20294;-74
2022/04/03 05:13:58;;;;;;;;;;;-1.20;99.90;;;;;;5038241;28;20247;-75
2022/04/03 05:16:24;;;;;;;;;;;-1.20;99.90;;;;;;5052790;28;19914;-74
2022/04/03 05:18:50;;;;;;;;;;;-1.20;99.90;;;;;;5052612;28;19979;-74
2022/04/03 05:21:16;;;;;;;;;;;-1.20;99.90;;;;;;5052513;28;20340;-74
2022/04/03 05:23:41;;;;;;;;;;;-1.20;99.90;;;;;;5052319;28;19909;-74
2022/04/03 05:26:07;;;;;;;;;;;-1.20;99.90;;;;;;5052646;28;19955;-75
2022/04/03 05:28:32;;;;;;;;;;;-1.20;99.90;;;;;;5052569;28;19955;-74
2022/04/03 05:30:58;;;;;;;;;;;-1.20;99.90;;;;;;5052400;28;20353;-75
2022/04/03 05:33:23;;;;;;;;;;;-1.20;99.90;;;;;;5051935;28;19909;-74
2022/04/03 05:35:50;;;;;;;;;;;-1.20;99.90;;;;;;5052333;28;19913;-75
2022/04/03 05:38:16;;;;;;;;;;;-1.10;99.90;;;;;;5051937;28;19909;-75
2022/04/03 05:40:41;;;;;;;;;;;-1.10;99.90;;;;;;5052149;28;20523;-75
2022/04/03 05:43:08;;;;;;;;;;;-1.00;99.90;;;;;;5051695;28;19908;-75
2022/04/03 05:45:33;;;;;;;;;;;-1.00;99.90;;;;;;5052060;28;19908;-75
2022/04/03 05:47:59;;;;;;;;;;;-1.00;99.90;;;;;;5052099;28;19920;-74
2022/04/03 05:50:24;;;;;;;;;;;-1.00;99.90;;;;;;5051473;28;19954;-74
2022/04/03 05:52:51;;;;;;;;;;;-1.00;99.90;;;;;;5051845;28;20290;-74
2022/04/03 05:55:18;;;;;;;;;;;-1.00;99.90;;;;;;5051697;28;20255;-75
2022/04/03 05:57:45;;;;;;;;;;;-1.00;99.90;;;;;;5051133;28;19913;-75
2022/04/03 06:00:14;;;;;;;;;;;-1.00;99.90;;;;;;5051769;28;19917;-74
2022/04/03 06:02:53;;;;;;;;;;;-1.00;99.90;;;;;;5048017;28;20306;-74
2022/04/03 06:05:23;;;;;;;;;;;-1.00;99.90;;;;;;5050105;28;19945;-75
2022/04/03 06:07:49;;;;;;;;;;;-0.90;99.90;;;;;;5051944;28;19920;-75
2022/04/03 06:10:14;;;;;;;;;;;-0.80;99.90;;;;;;5051676;28;19909;-75
2022/04/03 06:13:00;;;;;;;;;;;-0.80;99.90;;;;;;5051583;28;19915;-75
2022/04/03 06:15:27;;;;;;;;;;;-0.80;99.90;;;;;;5051564;28;19908;-74
2022/04/03 06:17:53;;;;;;;;;;;-0.70;99.90;;;;;;5051592;28;19917;-75
2022/04/03 06:20:19;;;;;;;;;;;-0.70;99.90;;;;;;5051702;28;19916;-75
2022/04/03 06:22:45;;;;;;;;;;;-0.70;99.90;;;;;;5044895;28;19908;-75
2022/04/03 06:25:11;;;;;;;;;;;-0.60;99.90;;;;;;5051257;28;19909;-75
2022/04/03 06:27:36;;;;;;;;;;;-0.50;99.90;;;;;;5051580;28;19916;-75
2022/04/03 06:30:02;;;;;;;;;;;-0.60;99.90;;;;;;5050093;28;19913;-75
2022/04/03 06:32:29;;;;;;;;;;;-0.50;99.90;;;;;;5047034;28;20278;-75
2022/04/03 06:34:54;;;;;;;;;;;-0.20;99.90;;;;;;5049728;28;19962;-75
2022/04/03 06:37:20;;;;;;;;;;;-0.20;99.90;;;;;;5051475;28;19909;-74
2022/04/03 06:39:45;;;;;;;;;;;-0.10;99.90;;;;;;5051371;28;19920;-74
2022/04/03 06:42:11;;;;;;;;;;;0.00;99.90;;;;;;5051246;28;20370;-75
2022/04/03 06:44:38;;;;;;;;;;;0.00;99.90;;;;;;5051130;28;20408;-75
2022/04/03 06:47:03;;;;;;;;;;;0.20;99.90;;;;;;5051330;28;19948;-75
2022/04/03 06:49:29;;;;;;;;;;;0.20;99.90;;;;;;5046478;28;19986;-75
2022/04/03 06:51:55;;;;;;;;;;;0.40;99.90;;;;;;5048822;28;19916;-75
2022/04/03 06:54:21;;;;;;;;;;;0.60;99.90;;;;;;5049447;28;19908;-75
2022/04/03 06:56:46;;;;;;;;;;;0.80;99.90;;;;;;5051320;28;20007;-74
2022/04/03 06:59:12;;;;;;;;;;;0.70;99.90;;;;;;5051065;28;19913;-75
2022/04/03 07:01:37;;;;;;;;;;;0.90;99.90;;;;;;5051007;28;19909;-75
2022/04/03 07:04:03;;;;;;;;;;;0.90;99.90;;;;;;5049627;28;19912;-74
2022/04/03 07:06:28;;;;;;;;;;;0.70;99.90;;;;;;5067770;28;19916;-75
2022/04/03 07:08:54;;;;;;;;;;;0.70;99.90;;;;;;5070650;28;19909;-76
2022/04/03 07:11:19;;;;;;;;;;;0.60;99.90;;;;;;5058859;28;19917;-75
2022/04/03 07:13:45;;;;;;;;;;;0.80;99.90;;;;;;5055804;28;19909;-73
2022/04/03 07:16:10;;;;;;;;;;;0.90;99.90;;;;;;5057901;28;20439;-73
2022/04/03 07:18:36;;;;;;;;;;;0.80;99.90;;;;;;5062145;28;20004;-72
2022/04/03 07:21:01;;;;;;;;;;;0.70;99.90;;;;;;5064572;28;19916;-73
2022/04/03 07:23:27;;;;;;;;;;;0.70;99.90;;;;;;5054997;28;19916;-74
2022/04/03 07:25:52;;;;;;;;;;;0.90;99.90;;;;;;5054878;28;19920;-73
2022/04/03 07:28:18;;;;;;;;;;;1.20;99.90;;;;;;5054865;28;20372;-73
2022/04/03 07:30:44;;;;;;;;;;;0.90;99.90;;;;;;5050900;28;20358;-73
2022/04/03 07:33:09;;;;;;;;;;;1.00;99.90;;;;;;5054109;28;19913;-73
2022/04/03 07:35:35;;;;;;;;;;;0.90;99.90;;;;;;5054769;28;19916;-74
2022/04/03 07:38:00;;;;;;;;;;;1.20;99.90;;;;;;5054599;28;20276;-73
2022/04/03 07:40:25;;;;;;;;;;;1.20;99.90;;;;;;5054455;28;19920;-74
2022/04/03 07:42:52;;;;;;;;;;;1.80;99.90;;;;;;5054278;28;20333;-73
2022/04/03 07:45:18;;;;;;;;;;;1.40;99.90;;;;;;5054387;28;19909;-74
2022/04/03 07:47:52;;;;;;;;;;;2.20;99.90;;;;;;5054482;28;20281;-74
2022/04/03 07:50:21;;;;;;;;;;;2.40;99.90;;;;;;5054512;28;19914;-73
2022/04/03 07:52:47;;;;;;;;;;;2.30;99.90;;;;;;5053080;28;19916;-74
2022/04/03 07:55:13;;;;;;;;;;;1.50;99.90;;;;;;5054036;28;19915;-75
2022/04/03 07:57:39;;;;;;;;;;;1.80;99.90;;;;;;5054437;28;19999;-75
2022/04/03 08:00:06;;;;;;;;;;;1.90;99.90;;;;;;5054158;28;19920;-75
2022/04/03 08:02:32;;;;;;;;;;;1.70;99.90;;;;;;5053944;28;20324;-75
2022/04/03 08:04:58;;;;;;;;;;;1.70;99.90;;;;;;5053663;28;19915;-75
2022/04/03 08:07:33;;;;;;;;;;;1.80;99.90;;;;;;5043306;28;19909;-74
2022/04/03 08:09:59;;;;;;;;;;;2.20;99.90;;;;;;5052857;28;20369;-75
2022/04/03 08:12:24;;;;;;;;;;;2.60;99.90;;;;;;5053881;28;19908;-75
2022/04/03 08:14:49;;;;;;;;;;;2.70;99.90;;;;;;5053733;28;19974;-75
2022/04/03 08:17:15;;;;;;;;;;;2.70;99.90;;;;;;5053909;28;19920;-75
2022/04/03 08:19:41;;;;;;;;;;;2.50;99.90;;;;;;5052783;28;19913;-75
2022/04/03 08:22:07;;;;;;;;;;;2.80;99.90;;;;;;5054391;28;20278;-75
2022/04/03 08:24:32;;;;;;;;;;;2.50;99.90;;;;;;5053644;28;19909;-75
2022/04/03 08:26:58;;;;;;;;;;;3.30;99.90;;;;;;5054114;28;19913;-75
2022/04/03 08:29:23;;;;;;;;;;;5.20;99.90;;;;;;5053512;28;20007;-75
2022/04/03 08:31:49;;;;;;;;;;;3.50;99.90;;;;;;5051747;28;19982;-75
2022/04/03 08:34:14;;;;;;;;;;;3.30;99.90;;;;;;5056157;28;19909;-75
2022/04/03 08:36:40;;;;;;;;;;;3.30;99.90;;;;;;5053858;28;19909;-74
2022/04/03 08:39:07;;;;;;;;;;;3.10;99.90;;;;;;5053538;28;19909;-75
2022/04/03 08:41:33;;;;;;;;;;;3.10;99.90;;;;;;5052360;28;20003;-74
2022/04/03 08:43:58;;;;;;;;;;;3.10;99.90;;;;;;5053430;28;19991;-74
2022/04/03 08:46:25;;;;;;;;;;;2.80;99.90;;;;;;5053478;28;19913;-75
2022/04/03 08:48:50;;;;;;;;;;;3.30;99.90;;;;;;5053600;28;19912;-74
2022/04/03 08:51:17;;;;;;;;;;;3.20;99.90;;;;;;5052139;28;19931;-75
2022/04/03 08:53:44;;;;;;;;;;;2.90;99.90;;;;;;5053052;28;19955;-75
2022/04/03 08:56:10;;;;;;;;;;;2.70;99.90;;;;;;5051618;28;19916;-75
2022/04/03 08:58:35;;;;;;;;;;;2.50;99.90;;;;;;5053011;28;19909;-75
2022/04/03 09:01:02;;;;;;;;;;;2.80;99.90;;;;;;5048729;28;20332;-74
2022/04/03 09:03:28;;;;;;;;;;;3.40;99.90;;;;;;5058387;28;19909;-75
2022/04/03 09:06:09;;;;;;;;;;;3.70;99.90;;;;;;5053172;28;19915;-75
2022/04/03 09:08:35;;;;;;;;;;;3.30;99.90;;;;;;5053201;28;19952;-75
2022/04/03 09:11:04;;;;;;;;;;;2.60;99.90;;;;;;5052989;28;19962;-75
2022/04/03 09:13:29;;;;;;;;;;;2.00;99.90;;;;;;5052857;28;19913;-74
2022/04/03 09:15:55;;;;;;;;;;;1.90;99.90;;;;;;5052544;28;19931;-75
2022/04/03 09:18:20;;;;;;;;;;;1.90;99.90;;;;;;5043869;28;20373;-75
2022/04/03 09:20:46;;;;;;;;;;;2.00;99.90;;;;;;5043147;28;19916;-75
2022/04/03 09:23:16;;;;;;;;;;;2.10;99.90;;;;;;5052088;28;20306;-74
2022/04/03 09:25:43;;;;;;;;;;;2.50;99.90;;;;;;5052434;28;19975;-75
2022/04/03 09:28:11;;;;;;;;;;;2.60;99.90;;;;;;5052371;28;20469;-75
2022/04/03 09:30:44;;;;;;;;;;;3.70;99.90;;;;;;5050519;28;20439;-75
2022/04/03 09:33:10;;;;;;;;;;;6.70;99.00;;;;;;5051447;28;20011;-76
2022/04/03 09:35:55;;;;;;;;;;;8.50;93.50;;;;;;5052138;28;19919;-76
2022/04/03 09:38:20;;;;;;;;;;;9.10;87.60;;;;;;5052267;28;19913;-76
2022/04/03 09:40:50;;;;;;;;;;;10.10;88.70;;;;;;5051804;28;19998;-76
2022/04/03 09:43:25;;;;;;;;;;;10.20;81.70;;;;;;5052249;28;20028;-76
2022/04/03 09:45:52;;;;;;;;;;;11.00;78.20;;;;;;5045971;28;19909;-76
2022/04/03 09:48:22;;;;;;;;;;;9.90;75.10;;;;;;5053746;28;20008;-77
2022/04/03 09:51:00;;;;;;;;;;;7.60;85.70;;;;;;5047069;28;19916;-77
2022/04/03 09:53:26;;;;;;;;;;;5.50;90.80;;;;;;5052349;28;19916;-76
2022/04/03 09:55:52;;;;;;;;;;;4.20;93.10;;;;;;5052269;28;19909;-77
2022/04/03 09:58:17;;;;;;;;;;;4.10;94.60;;;;;;5052411;28;20011;-77
2022/04/03 10:00:44;;;;;;;;;;;3.60;95.40;;;;;;5052285;28;19947;-77
2022/04/03 10:03:11;;;;;;;;;;;3.30;94.50;;;;;;5050501;28;19912;-77
2022/04/03 10:05:36;;;;;;;;;;;2.80;94.50;;;;;;5053230;28;20369;-76
2022/04/03 10:08:04;;;;;;;;;;;2.60;95.10;;;;;;5051333;28;19916;-77
2022/04/03 10:10:30;;;;;;;;;;;2.40;95.70;;;;;;5052565;28;19920;-77
2022/04/03 10:12:56;;;;;;;;;;;2.40;97.00;;;;;;5052375;28;19909;-77
2022/04/03 10:15:22;;;;;;;;;;;2.40;95.60;;;;;;5050934;28;19915;-76
2022/04/03 10:17:47;;;;;;;;;;;2.40;96.80;;;;;;5052402;28;20421;-76
2022/04/03 10:20:14;;;;;;;;;;;1.90;96.90;;;;;;5052246;28;19995;-76
2022/04/03 10:22:41;;;;;;;;;;;2.00;98.30;;;;;;5045650;28;20007;-76
2022/04/03 10:25:11;;;;;;;;;;;2.20;98.10;;;;;;5045608;28;19909;-76
2022/04/03 10:27:39;;;;;;;;;;;1.90;96.40;;;;;;5045669;28;19916;-77
2022/04/03 10:30:05;;;;;;;;;;;2.00;98.50;;;;;;5052279;28;20007;-76
2022/04/03 10:32:33;;;;;;;;;;;2.20;97.30;;;;;;5052580;28;19909;-75
2022/04/03 10:35:03;;;;;;;;;;;2.20;97.00;;;;;;5051683;28;19909;-75
2022/04/03 10:37:31;;;;;;;;;;;2.30;97.90;;;;;;5052025;28;19909;-76
2022/04/03 10:40:02;;;;;;;;;;;2.50;98.50;;;;;;5052508;28;19913;-75
2022/04/03 10:42:28;;;;;;;;;;;2.80;97.80;;;;;;5051112;28;19948;-76
2022/04/03 10:45:12;;;;;;;;;;;2.60;97.50;;;;;;5051673;28;19963;-76
2022/04/03 10:47:38;;;;;;;;;;;3.00;99.90;;;;;;5051736;28;19913;-75
2022/04/03 10:50:04;;;;;;;;;;;3.10;98.70;;;;;;5052111;28;19963;-77
2022/04/03 10:52:36;;;;;;;;;;;3.60;98.80;;;;;;5052801;28;19917;-77
2022/04/03 10:55:10;;;;;;;;;;;3.40;96.70;;;;;;5050017;28;19909;-77
2022/04/03 10:57:46;;;;;;;;;;;2.70;96.00;;;;;;5052302;28;19913;-76
2022/04/03 11:00:11;;;;;;;;;;;2.30;97.60;;;;;;5051921;28;19913;-76
2022/04/03 11:02:37;;;;;;;;;;;2.20;96.50;;;;;;5051236;28;20392;-76
2022/04/03 11:05:21;;;;;;;;;;;2.10;97.30;;;;;;5051804;28;20010;-76
2022/04/03 11:07:46;;;;;;;;;;;2.00;96.00;;;;;;5046268;28;20321;-76
2022/04/03 11:10:12;;;;;;;;;;;1.90;97.60;;;;;;5051986;28;19931;-76
2022/04/03 11:12:44;;;;;;;;;;;1.60;96.50;;;;;;5052208;28;20003;-76
2022/04/03 11:15:12;;;;;;;;;;;1.50;96.90;;;;;;5046192;28;19956;-76
2022/04/03 11:17:49;;;;;;;;;;;1.60;97.60;;;;;;5051829;28;19986;-76
2022/04/03 11:20:31;;;;;;;;;;;1.60;98.70;;;;;;5051726;28;20278;-76
2022/04/03 11:22:57;;;;;;;;;;;1.70;98.60;;;;;;5051531;28;19915;-75
2022/04/03 11:25:23;;;;;;;;;;;1.80;97.90;;;;;;5051684;28;19963;-75
2022/04/03 11:27:49;;;;;;;;;;;2.20;98.80;;;;;;5051713;28;19909;-75
2022/04/03 11:30:14;;;;;;;;;;;2.10;97.40;;;;;;5050635;28;19909;-75
2022/04/03 11:32:41;;;;;;;;;;;2.30;99.30;;;;;;5054040;28;19908;-76
2022/04/03 11:35:06;;;;;;;;;;;2.00;98.90;;;;;;5051199;28;19909;-76
2022/04/03 11:37:32;;;;;;;;;;;1.80;99.50;;;;;;5050945;28;19939;-77
2022/04/03 11:39:58;;;;;;;;;;;1.70;99.90;;;;;;5051964;28;19913;-75
2022/04/03 11:42:23;;;;;;;;;;;1.80;99.90;;;;;;5051577;28;19909;-76
2022/04/03 11:44:52;;;;;;;;;;;1.80;99.60;;;;;;5051362;28;19909;-76
2022/04/03 11:47:24;;;;;;;;;;;1.80;99.90;;;;;;5051825;28;19908;-76
2022/04/03 11:50:05;;;;;;;;;;;1.80;99.90;;;;;;5051814;28;19958;-75
2022/04/03 11:52:30;;;;;;;;;;;1.80;99.60;;;;;;5051625;28;19959;-76
2022/04/03 11:54:56;;;;;;;;;;;1.90;99.50;;;;;;5051551;28;19909;-76
2022/04/03 11:57:21;;;;;;;;;;;1.80;98.90;;;;;;5053544;28;19963;-76
2022/04/03 11:59:48;;;;;;;;;;;1.60;98.90;;;;;;5054953;28;19948;-75
2022/04/03 12:02:15;;;;;;;;;;;1.80;99.90;;;;;;5050142;28;19978;-76
2022/04/03 12:04:41;;;;;;;;;;;2.00;97.50;;;;;;5059566;28;19909;-76
2022/04/03 12:07:12;;;;;;;;;;;2.10;98.20;;;;;;5054905;28;19939;-76
2022/04/03 12:09:40;;;;;;;;;;;1.90;96.10;;;;;;5054412;28;19940;-76
2022/04/03 12:12:05;;;;;;;;;;;2.40;97.70;;;;;;5053444;28;20266;-75
2022/04/03 12:14:32;;;;;;;;;;;2.40;96.30;;;;;;5054730;28;19958;-76
2022/04/03 12:16:59;;;;;;;;;;;2.80;97.20;;;;;;5055696;28;19909;-76
2022/04/03 12:19:24;;;;;;;;;;;2.90;96.50;;;;;;5055486;28;19920;-76
2022/04/03 12:21:57;;;;;;;;;;;3.00;96.50;;;;;;5055945;28;19913;-76
2022/04/03 12:24:23;;;;;;;;;;;3.30;96.40;;;;;;5054295;28;20362;-76
2022/04/03 12:26:49;;;;;;;;;;;2.90;95.60;;;;;;5055689;28;19916;-76
2022/04/03 12:29:14;;;;;;;;;;;3.20;95.10;;;;;;5055138;28;20348;-75
2022/04/03 12:31:40;;;;;;;;;;;3.00;95.90;;;;;;5053610;28;19915;-76
2022/04/03 12:34:06;;;;;;;;;;;3.10;96.30;;;;;;5055225;28;20318;-75
2022/04/03 12:36:58;;;;;;;;;;;3.50;96.90;;;;;;5055693;28;20286;-76
2022/04/03 12:39:34;;;;;;;;;;;3.30;94.30;;;;;;5048642;28;19956;-76
2022/04/03 12:42:11;;;;;;;;;;;3.40;96.30;;;;;;5055124;28;19916;-75
2022/04/03 12:44:45;;;;;;;;;;;3.00;95.60;;;;;;5053859;28;19931;-76
2022/04/03 12:47:11;;;;;;;;;;;2.80;95.60;;;;;;5053538;28;20026;-76
2022/04/03 12:49:37;;;;;;;;;;;2.20;94.50;;;;;;5052631;28;19909;-76
2022/04/03 12:52:02;;;;;;;;;;;2.30;96.80;;;;;;5053726;28;20415;-76
2022/04/03 12:54:43;;;;;;;;;;;2.50;96.70;;;;;;5050327;28;19964;-74
2022/04/03 13:00:07;;;;;;;;;;;2.40;96.80;;;;;;5053425;28;19919;-76
2022/04/03 13:02:39;;;;;;;;;;;2.40;96.90;;;;;;5058702;28;20004;-72
2022/04/03 13:05:04;;;;;;;;;;;2.10;96.20;;;;;;5052946;28;19909;-75
2022/04/03 13:07:30;;;;;;;;;;;2.30;98.30;;;;;;5053824;28;19915;-74
2022/04/03 13:09:58;;;;;;;;;;;2.40;98.40;;;;;;5053857;28;19935;-76
2022/04/03 13:12:27;;;;;;;;;;;2.00;98.70;;;;;;5053961;28;19909;-76
2022/04/03 13:14:52;;;;;;;;;;;2.10;99.90;;;;;;5054109;28;19909;-76
2022/04/03 13:17:18;;;;;;;;;;;1.70;98.90;;;;;;5053838;28;20354;-76
2022/04/03 13:19:44;;;;;;;;;;;1.80;99.90;;;;;;5053297;28;19912;-74
2022/04/03 13:22:09;;;;;;;;;;;2.00;99.90;;;;;;5053487;28;19920;-75
2022/04/03 13:24:35;;;;;;;;;;;1.60;98.60;;;;;;5053377;28;19909;-76
2022/04/03 13:27:01;;;;;;;;;;;1.70;99.80;;;;;;5053668;28;19986;-76
2022/04/03 13:29:26;;;;;;;;;;;1.80;99.90;;;;;;5052523;28;19909;-75
2022/04/03 13:31:53;;;;;;;;;;;2.10;99.30;;;;;;5053214;28;19964;-76
2022/04/03 13:34:19;;;;;;;;;;;1.90;99.20;;;;;;5053470;28;19909;-76
2022/04/03 13:36:44;;;;;;;;;;;2.10;99.60;;;;;;5053199;28;19909;-74
2022/04/03 13:39:10;;;;;;;;;;;2.20;99.90;;;;;;5051612;28;19960;-75
2022/04/03 13:41:37;;;;;;;;;;;2.30;99.20;;;;;;5053032;28;19913;-74
2022/04/03 13:44:04;;;;;;;;;;;2.40;98.80;;;;;;5053038;28;19909;-75
2022/04/03 13:46:29;;;;;;;;;;;2.40;98.70;;;;;;5052926;28;20087;-75
2022/04/03 13:48:54;;;;;;;;;;;2.50;98.30;;;;;;5052714;28;19931;-75
2022/04/03 13:51:20;;;;;;;;;;;2.60;97.70;;;;;;5052533;28;19955;-73
2022/04/03 13:53:46;;;;;;;;;;;2.40;96.50;;;;;;5052949;28;19909;-75
2022/04/03 13:56:12;;;;;;;;;;;2.80;96.80;;;;;;5053386;28;19909;-75
2022/04/03 13:58:38;;;;;;;;;;;3.20;97.50;;;;;;5053289;28;20381;-75
2022/04/03 14:01:04;;;;;;;;;;;2.90;96.20;;;;;;5055902;28;19913;-78
2022/04/03 14:03:30;;;;;;;;;;;2.50;95.10;;;;;;5054342;28;19913;-75
2022/04/03 14:05:56;;;;;;;;;;;3.00;96.50;;;;;;5052928;28;20385;-75
2022/04/03 14:08:22;;;;;;;;;;;3.20;96.80;;;;;;5053318;28;19909;-75
2022/04/03 14:10:48;;;;;;;;;;;3.30;96.10;;;;;;5053022;28;20366;-75
2022/04/03 14:13:14;;;;;;;;;;;3.10;95.70;;;;;;5052818;28;19916;-74
2022/04/03 14:15:40;;;;;;;;;;;3.40;97.40;;;;;;5052691;28;19912;-75
2022/04/03 14:18:06;;;;;;;;;;;2.80;96.00;;;;;;5052615;28;20433;-75
2022/04/03 14:20:31;;;;;;;;;;;2.30;96.70;;;;;;5051629;28;19917;-75
2022/04/03 14:22:57;;;;;;;;;;;2.60;97.80;;;;;;5054123;28;19909;-74